Time;durP1;ratioP1;P1;durP2;ratioP2;P2;SDS_P1;SDS_P2;PMS_P1;PMS_P2;Temp;Humidity;BMP_temperature;BMP_pressure;BME280_temperature;BME280_humidity;BME280_pressure;Samples;Min_cycle;Max_cycle;Signal;HPM_P1;HPM_P2
2022/06/13 00:02:46;;;;;;;3.80;3.10;;;;;;;23.55;53.50;95000.97;6143467;28;103136;-55
2022/06/13 00:05:50;;;;;;;3.30;3.07;;;;;;;23.55;53.36;95006.28;6158757;28;103265;-55
2022/06/13 00:08:54;;;;;;;3.47;3.23;;;;;;;23.55;53.35;94998.28;6152346;28;103089;-54
2022/06/13 00:11:57;;;;;;;3.50;3.20;;;;;;;23.54;53.50;95008.19;6144953;28;103143;-55
2022/06/13 00:15:01;;;;;;;3.07;2.80;;;;;;;23.52;53.28;95004.22;6139947;28;103735;-55
2022/06/13 00:18:04;;;;;;;3.43;2.87;;;;;;;23.51;53.19;95011.47;6155370;28;103110;-55
2022/06/13 00:21:07;;;;;;;3.53;3.00;;;;;;;23.50;53.18;95012.56;6149538;28;103783;-55
2022/06/13 00:24:12;;;;;;;3.33;2.97;;;;;;;23.50;53.14;95014.44;6160063;28;103246;-54
2022/06/13 00:27:16;;;;;;;3.13;2.80;;;;;;;23.52;52.88;95017.59;6159972;28;103132;-55
2022/06/13 00:30:19;;;;;;;2.80;2.60;;;;;;;23.53;52.57;95027.97;6159746;28;103300;-55
2022/06/13 00:33:22;;;;;;;3.70;2.90;;;;;;;23.50;52.91;95023.25;6125721;28;103388;-55
2022/06/13 00:36:25;;;;;;;3.20;3.00;;;;;;;23.49;52.93;95023.56;6139682;28;105837;-54
2022/06/13 00:39:29;;;;;;;3.13;2.93;;;;;;;23.50;52.86;95027.81;6135170;28;103144;-54
2022/06/13 00:42:33;;;;;;;3.40;3.10;;;;;;;23.49;53.04;95026.22;6154319;28;103125;-55
2022/06/13 00:45:37;;;;;;;3.20;3.00;;;;;;;23.50;52.83;95022.47;6149575;28;103113;-55
2022/06/13 00:48:40;;;;;;;4.70;2.83;;;;;;;23.48;52.73;95013.97;6158854;28;103111;-55
2022/06/13 00:51:47;;;;;;;3.00;2.80;;;;;;;23.48;52.69;95020.09;6159653;28;104215;-54
2022/06/13 00:54:54;;;;;;;2.83;2.63;;;;;;;23.50;52.87;95014.44;6149517;28;103036;-54
2022/06/13 00:58:00;;;;;;;3.00;2.80;;;;;;;23.47;52.72;95017.75;6158950;28;103080;-55
2022/06/13 01:01:04;;;;;;;3.03;2.80;;;;;;;23.49;52.75;95013.66;6158966;28;102913;-55
2022/06/13 01:04:09;;;;;;;3.17;2.87;;;;;;;23.48;52.71;95006.75;6159126;28;103094;-55
2022/06/13 01:07:12;;;;;;;3.70;3.40;;;;;;;23.47;52.80;95013.19;6133975;28;104084;-55
2022/06/13 01:13:48;;;;;;;2.80;2.60;;;;;;;23.46;52.77;95002.84;6163122;28;103272;-54
2022/06/13 01:17:10;;;;;;;3.73;3.00;;;;;;;23.44;52.65;95013.06;6159136;28;103299;-56
2022/06/13 01:20:41;;;;;;;2.93;2.70;;;;;;;23.45;52.67;95011.94;6157710;28;103198;-57
2022/06/13 01:24:17;;;;;;;3.33;3.03;;;;;;;23.42;52.62;95005.34;6156377;28;104198;-57
2022/06/13 01:27:52;;;;;;;3.40;3.10;;;;;;;23.42;53.09;95009.91;6139407;28;103667;-57
2022/06/13 01:31:13;;;;;;;3.10;2.90;;;;;;;23.45;52.59;94998.59;6127976;28;103188;-57
2022/06/13 01:34:23;;;;;;;3.60;3.40;;;;;;;23.44;52.66;95008.50;6138288;28;103072;-57
2022/06/13 01:37:37;;;;;;;3.00;2.80;;;;;;;23.44;52.52;95008.50;6161407;28;103424;-56
2022/06/13 01:40:59;;;;;;;2.90;2.70;;;;;;;23.43;52.78;95014.16;6147097;28;103175;-57
2022/06/13 01:44:11;;;;;;;3.20;3.00;;;;;;;23.44;52.30;95010.38;6157288;28;104493;-57
2022/06/13 01:47:23;;;;;;;3.50;3.30;;;;;;;23.45;52.58;95011.94;6139439;28;103005;-57
2022/06/13 01:50:31;;;;;;;3.00;2.80;;;;;;;23.45;52.23;95009.28;6147963;28;103320;-57
2022/06/13 01:53:43;;;;;;;3.00;2.80;;;;;;;23.47;52.05;95017.75;6151767;28;105187;-56
2022/06/13 01:56:57;;;;;;;3.10;2.90;;;;;;;23.43;52.14;95006.91;6162848;28;104222;-56
2022/06/13 02:00:08;;;;;;;3.30;3.07;;;;;;;23.41;52.59;95013.69;6163222;28;104538;-57
2022/06/13 02:03:19;;;;;;;3.10;2.80;;;;;;;23.43;52.33;95017.59;6146650;28;103222;-57
2022/06/13 02:06:28;;;;;;;3.23;3.03;;;;;;;23.39;52.29;95022.00;6155582;28;103398;-56
2022/06/13 02:09:39;;;;;;;3.07;2.87;;;;;;;23.41;52.34;95021.69;6162064;28;103016;-57
2022/06/13 02:12:47;;;;;;;3.43;3.10;;;;;;;23.43;52.38;95014.16;6162083;28;104147;-55
2022/06/13 02:15:55;;;;;;;3.20;3.00;;;;;;;23.41;52.21;95022.47;6142432;28;104885;-56
2022/06/13 02:19:06;;;;;;;3.43;3.10;;;;;;;23.39;52.38;95021.22;6136584;28;103038;-56
2022/06/13 02:22:14;;;;;;;3.83;3.47;;;;;;;23.40;52.28;95025.47;6139657;28;104189;-55
2022/06/13 02:25:21;;;;;;;2.90;2.70;;;;;;;23.42;52.23;95020.59;6156755;28;104198;-56
2022/06/13 02:28:33;;;;;;;4.73;3.23;;;;;;;23.41;52.31;95019.03;6157457;28;103334;-56
2022/06/13 02:31:43;;;;;;;3.07;2.87;;;;;;;23.40;52.22;95022.78;6161753;28;103145;-56
2022/06/13 02:34:53;;;;;;;2.73;2.53;;;;;;;23.38;52.00;95025.78;6161252;28;104189;-57
2022/06/13 02:38:02;;;;;;;3.70;3.40;;;;;;;23.38;51.99;95025.00;6149157;28;103295;-56
2022/06/13 02:41:09;;;;;;;3.90;3.13;;;;;;;23.35;51.84;95029.06;6161858;28;103000;-56
2022/06/13 02:44:18;;;;;;;3.03;2.83;;;;;;;23.36;52.09;95019.97;6149498;28;103510;-56
2022/06/13 02:47:26;;;;;;;2.83;2.63;;;;;;;23.36;52.13;95014.63;6161236;28;103041;-56
2022/06/13 02:50:39;;;;;;;3.20;2.90;;;;;;;23.37;51.87;95020.75;6155670;28;103603;-57
2022/06/13 02:53:51;;;;;;;3.20;3.00;;;;;;;23.34;52.06;95032.03;6160388;28;103973;-56
2022/06/13 03:00:31;;;;;;;3.50;3.30;;;;;;;23.34;51.66;95032.03;6127716;28;104066;-56
2022/06/13 03:03:44;;;;;;;3.23;3.03;;;;;;;23.35;51.71;95026.38;6137083;28;103278;-56
2022/06/13 03:06:56;;;;;;;3.40;3.20;;;;;;;23.38;51.58;95039.13;6151880;28;104288;-56
2022/06/13 03:10:07;;;;;;;4.13;3.73;;;;;;;23.37;51.50;95040.25;6136372;28;103226;-56
2022/06/13 03:13:21;;;;;;;3.97;3.67;;;;;;;23.37;50.84;95045.56;6128486;28;103167;-56
2022/06/13 03:16:31;;;;;;;3.93;3.50;;;;;;;23.35;50.49;95039.75;6136968;28;103211;-56
2022/06/13 03:19:38;;;;;;;5.63;3.57;;;;;;;23.37;51.12;95040.25;6142858;28;104844;-56
2022/06/13 03:22:47;;;;;;;4.23;3.70;;;;;;;23.38;50.67;95047.16;6146247;28;103267;-55
2022/06/13 03:25:56;;;;;;;3.87;3.50;;;;;;;23.35;50.41;95045.06;6155845;28;104630;-56
2022/06/13 03:29:05;;;;;;;3.83;3.53;;;;;;;23.34;50.56;95056.84;6152713;28;104207;-56
2022/06/13 03:32:15;;;;;;;3.50;3.20;;;;;;;23.33;50.21;95060.63;6153916;28;103139;-56
2022/06/13 03:35:20;;;;;;;3.67;3.33;;;;;;;23.30;50.30;95046.03;6146026;28;103116;-56
2022/06/13 03:38:31;;;;;;;3.87;3.47;;;;;;;23.29;50.16;95054.34;6160122;28;102935;-57
2022/06/13 03:41:39;;;;;;;4.50;3.23;;;;;;;23.27;50.64;95051.97;6158888;28;103989;-56
2022/06/13 03:44:51;;;;;;;6.67;3.50;;;;;;;23.32;52.26;95059.06;6132548;28;104003;-55
2022/06/13 03:48:03;;;;;;;5.03;3.90;;;;;;;23.35;51.84;95065.66;6144683;28;104532;-55
2022/06/13 03:51:11;;;;;;;4.13;3.73;;;;;;;23.44;51.21;95069.13;6148175;28;103854;-57
2022/06/13 03:54:21;;;;;;;6.47;3.40;;;;;;;23.48;50.66;95056.72;6146773;28;103274;-57
2022/06/13 03:57:31;;;;;;;4.80;3.70;;;;;;;23.42;50.28;95064.09;6128574;28;104496;-57
2022/06/13 04:00:41;;;;;;;4.53;3.93;;;;;;;23.44;50.91;95063.78;6146394;28;103265;-56
2022/06/13 04:03:44;;;;;;;3.57;3.37;;;;;;;23.45;51.61;95068.03;6157589;28;102998;-55
2022/06/13 04:06:48;;;;;;;4.03;3.60;;;;;;;23.46;50.45;95066.94;6156531;28;103474;-55
2022/06/13 04:09:56;;;;;;;4.33;3.93;;;;;;;23.42;51.46;95061.44;6136025;28;102975;-55
2022/06/13 04:13:27;;;;;;;4.83;3.30;;;;;;;23.35;51.02;95063.78;6153729;28;103369;-56
2022/06/13 04:16:45;;;;;;;9.70;4.30;;;;;;;23.38;50.59;95065.06;6152928;28;103240;-55
2022/06/13 04:19:54;;;;;;;5.00;4.00;;;;;;;23.21;50.79;95060.44;6150066;28;104190;-55
2022/06/13 04:23:07;;;;;;;6.03;4.33;;;;;;;23.27;50.98;95064.53;6158746;28;103097;-55
2022/06/13 04:26:17;;;;;;;6.13;4.10;;;;;;;23.31;51.21;95065.50;6160268;28;102777;-56
2022/06/13 04:29:27;;;;;;;7.33;4.20;;;;;;;23.35;51.23;95063.00;6160350;28;103047;-56
2022/06/13 04:32:36;;;;;;;4.17;3.73;;;;;;;23.37;50.56;95063.50;6149325;28;104299;-56
2022/06/13 04:35:41;;;;;;;5.53;4.30;;;;;;;23.30;51.13;95056.72;6159184;28;104294;-56
2022/06/13 04:38:48;;;;;;;4.70;4.30;;;;;;;23.25;51.45;95059.50;6157717;28;104285;-56
2022/06/13 04:41:55;;;;;;;4.43;4.13;;;;;;;23.22;51.05;95064.69;6149382;28;103716;-56
2022/06/13 04:45:03;;;;;;;4.27;3.90;;;;;;;23.21;51.94;95042.53;6161417;28;103927;-56
2022/06/13 04:48:07;;;;;;;5.00;4.60;;;;;;;23.29;51.42;95054.34;6161962;28;103430;-56
2022/06/13 04:51:13;;;;;;;4.80;4.47;;;;;;;23.32;51.77;95060.94;6163711;28;104141;-55
2022/06/13 04:54:24;;;;;;;4.83;4.43;;;;;;;23.28;51.68;95056.22;6152632;28;103662;-56
2022/06/13 04:57:30;;;;;;;5.40;5.00;;;;;;;23.28;51.67;95056.22;6163789;28;103221;-55
2022/06/13 05:00:35;;;;;;;5.30;4.80;;;;;;;23.30;51.57;95050.59;6163943;28;103371;-55
2022/06/13 05:03:42;;;;;;;6.10;5.37;;;;;;;23.28;51.81;95048.19;6164857;28;103322;-56
2022/06/13 05:06:48;;;;;;;5.80;5.40;;;;;;;23.27;52.54;95051.97;6157882;28;104141;-56
2022/06/13 05:09:55;;;;;;;7.27;6.50;;;;;;;23.22;52.49;95041.44;6164232;28;104471;-56
2022/06/13 05:13:00;;;;;;;6.03;5.53;;;;;;;23.10;53.27;95045.81;6164170;28;102982;-56
2022/06/13 05:16:12;;;;;;;7.30;6.80;;;;;;;23.14;53.31;95047.53;6152320;28;104423;-55
2022/06/13 05:19:44;;;;;;;7.00;6.43;;;;;;;23.09;53.65;95058.38;6164085;28;103380;-55
2022/06/13 05:23:09;;;;;;;8.50;7.70;;;;;;;23.16;53.40;95061.38;6161761;28;103062;-56
2022/06/13 05:26:12;;;;;;;7.10;6.50;;;;;;;23.14;53.54;95055.56;6160672;28;103080;-56
2022/06/13 05:29:17;;;;;;;8.53;7.00;;;;;;;23.09;53.88;95055.72;6153182;28;104038;-55
2022/06/13 05:32:22;;;;;;;7.73;7.10;;;;;;;23.10;54.28;95056.50;6163748;28;104085;-55
2022/06/13 05:35:30;;;;;;;7.63;7.00;;;;;;;23.13;54.43;95048.66;6163492;28;103302;-55
2022/06/13 05:38:37;;;;;;;7.03;6.53;;;;;;;23.16;54.40;95045.34;6153634;28;103124;-55
2022/06/13 05:41:41;;;;;;;7.37;6.70;;;;;;;23.18;54.59;95053.81;6163517;28;104272;-56
2022/06/13 05:44:45;;;;;;;7.80;7.10;;;;;;;23.28;54.21;95055.41;6163164;28;103142;-55
2022/06/13 05:47:50;;;;;;;7.43;6.83;;;;;;;23.33;54.16;95057.19;6163107;28;103145;-56
2022/06/13 05:50:54;;;;;;;8.60;7.90;;;;;;;23.37;53.63;95050.91;6151699;28;104031;-55
2022/06/13 05:53:58;;;;;;;6.83;6.17;;;;;;;23.42;53.15;95048.09;6162506;28;103368;-56
2022/06/13 05:57:02;;;;;;;6.83;6.03;;;;;;;23.45;53.53;95046.66;6162963;28;104472;-56
2022/06/13 06:00:15;;;;;;;6.90;6.40;;;;;;;23.50;52.93;95036.59;6162899;28;104519;-56
2022/06/13 06:03:18;;;;;;;6.50;6.00;;;;;;;23.58;52.98;95048.41;6152413;28;104052;-56
2022/06/13 06:06:24;;;;;;;6.70;6.20;;;;;;;23.62;52.65;95052.00;6162922;28;103214;-55
2022/06/13 06:09:27;;;;;;;6.63;6.00;;;;;;;23.65;53.09;95055.94;6162189;28;103030;-56
2022/06/13 06:12:30;;;;;;;5.90;5.50;;;;;;;23.72;53.53;95061.59;6155649;28;103185;-55
2022/06/13 06:15:34;;;;;;;6.70;5.93;;;;;;;23.77;53.22;95056.88;6160882;28;104441;-56
2022/06/13 06:18:38;;;;;;;6.43;5.83;;;;;;;23.81;52.71;95059.69;6161324;28;103077;-56
2022/06/13 06:21:41;;;;;;;6.20;5.70;;;;;;;23.77;53.05;95064.88;6161727;28;103119;-56
2022/06/13 06:24:44;;;;;;;6.50;5.90;;;;;;;23.80;53.03;95069.59;6151975;28;103345;-56
2022/06/13 06:27:47;;;;;;;6.40;5.97;;;;;;;23.86;52.80;95071.03;6161959;28;103176;-54
2022/06/13 06:30:52;;;;;;;5.93;5.53;;;;;;;23.93;53.03;95067.09;6162015;28;103218;-55
2022/06/13 06:33:56;;;;;;;6.30;5.80;;;;;;;23.99;53.29;95068.47;6162625;28;104072;-55
2022/06/13 06:36:59;;;;;;;6.80;6.20;;;;;;;24.01;53.40;95066.28;6150424;28;103775;-55
2022/06/13 06:40:02;;;;;;;6.60;6.10;;;;;;;24.04;53.32;95068.38;6162318;28;104036;-56
2022/06/13 06:43:05;;;;;;;6.10;5.70;;;;;;;24.08;53.16;95078.09;6161939;28;103036;-55
2022/06/13 06:46:11;;;;;;;6.40;5.90;;;;;;;24.08;53.25;95074.63;6157050;28;104078;-56
2022/06/13 06:49:14;;;;;;;6.20;5.60;;;;;;;24.12;53.07;95075.56;6155340;28;103047;-55
2022/06/13 06:52:17;;;;;;;8.27;7.43;;;;;;;24.14;53.83;95078.69;6161721;28;104213;-56
2022/06/13 07:02:06;;;;;;;7.93;7.40;;;;;;;24.22;53.33;95075.25;6161696;28;103298;-56
2022/06/13 07:05:09;;;;;;;9.20;8.40;;;;;;;24.24;53.64;95067.69;6160374;28;103284;-56
2022/06/13 07:08:12;;;;;;;8.40;7.70;;;;;;;24.26;53.31;95065.47;6160870;28;103179;-56
2022/06/13 07:14:44;;;;;;;8.30;7.70;;;;;;;24.32;52.95;95063.41;6160920;28;103483;-56
2022/06/13 07:17:48;;;;;;;7.50;6.90;;;;;;;24.34;52.87;95061.97;6161427;28;103220;-56
2022/06/13 07:20:51;;;;;;;7.43;6.83;;;;;;;24.38;52.75;95056.78;6150570;28;104671;-56
2022/06/13 07:23:54;;;;;;;7.77;7.07;;;;;;;24.40;52.71;95052.69;6161089;28;103270;-57
2022/06/13 07:26:58;;;;;;;7.37;6.80;;;;;;;24.40;52.41;95059.94;6161418;28;103198;-56
2022/06/13 07:30:02;;;;;;;7.40;6.70;;;;;;;24.41;52.50;95070.31;6160854;28;103121;-56
2022/06/13 07:33:07;;;;;;;7.33;6.83;;;;;;;24.42;52.42;95063.84;6151108;28;104341;-56
2022/06/13 07:36:10;;;;;;;7.97;7.20;;;;;;;24.43;52.17;95064.63;6160790;28;102885;-56
2022/06/13 07:39:14;;;;;;;7.90;7.30;;;;;;;24.46;52.17;95069.34;6161249;28;103122;-57
2022/06/13 07:42:18;;;;;;;7.53;6.93;;;;;;;24.48;51.79;95064.44;6161425;28;103636;-56
2022/06/13 07:45:24;;;;;;;6.13;5.70;;;;;;;24.48;52.13;95067.91;6150572;28;104686;-55
2022/06/13 07:48:49;;;;;;;7.03;6.43;;;;;;;24.47;52.51;95069.03;6161022;28;102992;-53
2022/06/13 07:51:53;;;;;;;7.60;6.90;;;;;;;24.52;52.49;95068.06;6160509;28;104145;-54
2022/06/13 07:54:56;;;;;;;7.00;6.50;;;;;;;24.55;52.66;95072.78;6137119;28;103378;-53
2022/06/13 07:58:00;;;;;;;6.87;6.40;;;;;;;24.56;52.51;95068.22;6135929;28;103320;-54
2022/06/13 08:01:04;;;;;;;7.87;7.20;;;;;;;24.61;52.30;95065.34;6136773;28;104341;-56
2022/06/13 08:04:09;;;;;;;7.00;6.50;;;;;;;24.61;52.28;95065.34;6136353;28;103005;-56
2022/06/13 08:07:15;;;;;;;7.47;6.73;;;;;;;24.63;52.26;95063.13;6126258;28;104449;-56
2022/06/13 08:10:19;;;;;;;7.67;7.07;;;;;;;24.62;52.25;95065.03;6137030;28;103044;-56
2022/06/13 08:13:23;;;;;;;7.23;6.53;;;;;;;24.59;52.03;95067.56;6136474;28;103113;-57
2022/06/13 08:16:27;;;;;;;7.43;6.83;;;;;;;24.60;52.09;95072.59;6135938;28;104227;-56
2022/06/13 08:19:31;;;;;;;6.80;6.30;;;;;;;24.56;52.13;95070.91;6124632;28;103700;-57
2022/06/13 08:22:34;;;;;;;7.23;6.70;;;;;;;24.58;52.19;95069.47;6135197;28;103045;-57
2022/06/13 08:25:39;;;;;;;8.17;7.47;;;;;;;24.62;52.18;95072.28;6135984;28;103217;-57
2022/06/13 08:28:42;;;;;;;8.47;7.77;;;;;;;24.60;52.10;95077.94;6130672;28;104405;-56
2022/06/13 08:31:46;;;;;;;8.77;7.90;;;;;;;24.63;52.34;95069.28;6132797;28;105127;-57
2022/06/13 08:34:51;;;;;;;7.40;6.90;;;;;;;24.62;52.37;95073.06;6135610;28;103300;-56
2022/06/13 08:37:54;;;;;;;7.30;6.70;;;;;;;24.64;52.21;95070.06;6136123;28;104347;-56
2022/06/13 08:41:05;;;;;;;8.03;7.40;;;;;;;24.67;52.32;95077.44;6125193;28;104004;-57
2022/06/13 08:44:34;;;;;;;8.07;7.33;;;;;;;24.69;51.78;95075.25;6135830;28;102949;-57
2022/06/13 08:47:45;;;;;;;7.40;6.80;;;;;;;24.68;51.83;95076.38;6135692;28;103563;-56
2022/06/13 08:50:53;;;;;;;8.23;7.57;;;;;;;24.67;52.11;95070.19;6133640;28;105056;-56
2022/06/13 08:53:59;;;;;;;7.80;7.20;;;;;;;24.69;51.75;95070.69;6134199;28;103281;-55
2022/06/13 08:57:08;;;;;;;7.50;6.90;;;;;;;24.70;52.03;95068.81;6159406;28;103213;-56
2022/06/13 09:00:18;;;;;;;7.57;6.87;;;;;;;24.70;52.05;95066.16;6159824;28;104227;-56
2022/06/13 09:03:26;;;;;;;8.13;7.53;;;;;;;24.70;51.67;95066.94;6149292;28;105018;-56
2022/06/13 09:06:38;;;;;;;8.27;7.47;;;;;;;24.73;51.88;95066.28;6159969;28;103863;-57
2022/06/13 09:09:48;;;;;;;8.00;7.30;;;;;;;24.75;51.78;95068.63;6159978;28;103011;-56
2022/06/13 09:13:00;;;;;;;7.53;6.93;;;;;;;24.73;51.63;95068.19;6159709;28;103178;-56
2022/06/13 09:16:10;;;;;;;7.90;7.33;;;;;;;24.64;51.70;95064.72;6148462;28;102878;-56
2022/06/13 09:19:19;;;;;;;6.67;6.17;;;;;;;24.66;51.07;95060.59;6158683;28;103115;-55
2022/06/13 09:22:28;;;;;;;6.80;6.30;;;;;;;24.66;51.01;95062.50;6159876;28;103188;-57
2022/06/13 09:25:42;;;;;;;6.20;5.70;;;;;;;24.64;51.27;95062.03;6152345;28;104075;-56
2022/06/13 09:28:51;;;;;;;6.40;5.90;;;;;;;24.62;51.32;95061.56;6161682;28;103489;-56
2022/06/13 09:32:00;;;;;;;5.80;5.30;;;;;;;24.63;51.47;95060.47;6163716;28;104908;-56
2022/06/13 09:35:14;;;;;;;6.47;5.97;;;;;;;24.64;51.43;95060.13;6162654;28;103024;-56
2022/06/13 09:38:22;;;;;;;6.50;5.90;;;;;;;24.66;51.41;95047.22;6152871;28;103262;-56
2022/06/13 09:41:51;;;;;;;8.63;7.77;;;;;;;24.67;51.37;95048.00;6162617;28;103323;-56
2022/06/13 09:45:07;;;;;;;7.97;7.27;;;;;;;24.64;50.96;95040.63;6160147;28;103205;-56
2022/06/13 09:48:26;;;;;;;6.70;6.23;;;;;;;24.66;50.55;95041.88;6157982;28;104189;-57
2022/06/13 09:51:45;;;;;;;6.60;6.00;;;;;;;24.70;50.88;95048.19;6161653;28;103166;-56
2022/06/13 09:54:54;;;;;;;6.53;6.03;;;;;;;24.68;50.92;95041.56;6150400;28;103365;-56
2022/06/13 09:58:09;;;;;;;6.70;6.20;;;;;;;24.67;50.92;95048.78;6136209;28;103443;-55
2022/06/13 10:01:20;;;;;;;7.27;6.57;;;;;;;24.67;50.65;95045.31;6126038;28;104031;-55
2022/06/13 10:04:34;;;;;;;6.73;6.23;;;;;;;24.65;51.13;95034.16;6136548;28;102964;-56
2022/06/13 10:07:45;;;;;;;7.20;6.70;;;;;;;24.67;51.07;95037.31;6137405;28;103225;-56
2022/06/13 10:10:56;;;;;;;5.90;5.40;;;;;;;24.62;50.12;95043.63;6131592;28;104161;-56
2022/06/13 10:14:27;;;;;;;5.77;5.20;;;;;;;24.62;49.65;95040.94;6134579;28;104404;-56
2022/06/13 10:17:49;;;;;;;6.60;6.10;;;;;;;24.64;49.20;95037.94;6134685;28;103377;-55
2022/06/13 10:20:58;;;;;;;6.30;5.67;;;;;;;24.62;49.38;95032.13;6136704;28;104044;-56
2022/06/13 10:24:12;;;;;;;5.43;5.07;;;;;;;24.64;49.46;95035.28;6125929;28;103035;-55
2022/06/13 10:27:30;;;;;;;6.00;5.60;;;;;;;24.62;49.92;95029.47;6136212;28;103100;-56
2022/06/13 10:30:42;;;;;;;6.40;5.80;;;;;;;24.61;49.99;95027.91;6136565;28;104048;-56
2022/06/13 10:33:57;;;;;;;6.00;5.50;;;;;;;24.61;50.29;95022.53;6126280;28;103125;-56
2022/06/13 10:37:20;;;;;;;5.67;5.27;;;;;;;24.58;50.56;95029.34;6136279;28;104405;-56
2022/06/13 10:40:24;;;;;;;5.90;5.40;;;;;;;24.58;50.24;95020.53;6135713;28;104543;-55
2022/06/13 10:43:31;;;;;;;5.80;5.40;;;;;;;24.58;50.62;95017.84;6135689;28;103276;-56
2022/06/13 10:46:34;;;;;;;6.57;6.10;;;;;;;24.56;50.61;95009.34;6125534;28;102992;-56
2022/06/13 10:49:43;;;;;;;6.43;5.90;;;;;;;24.54;50.17;95009.69;6136070;28;103166;-56
2022/06/13 10:52:51;;;;;;;6.43;5.60;;;;;;;24.49;49.56;94999.94;6136562;28;103855;-55
2022/06/13 10:55:58;;;;;;;5.90;5.40;;;;;;;24.51;49.67;94991.56;6107683;28;1276007;-55
2022/06/13 10:59:02;;;;;;;5.80;5.40;;;;;;;24.50;50.04;94996.13;6155808;28;103351;-56
2022/06/13 11:02:21;;;;;;;6.40;6.00;;;;;;;24.51;50.22;94986.22;6160602;28;103025;-55
2022/06/13 11:05:26;;;;;;;6.60;6.10;;;;;;;24.50;50.35;94985.44;6161335;28;103042;-56
2022/06/13 11:08:31;;;;;;;6.67;6.07;;;;;;;24.48;50.05;94976.97;6150495;28;104096;-56
2022/06/13 11:11:40;;;;;;;7.53;5.83;;;;;;;24.45;50.03;94974.94;6161173;28;104054;-56
2022/06/13 11:25:21;;;;;;;6.63;6.10;;;;;;;24.45;50.10;94952.75;6161098;28;103086;-56
2022/06/13 11:28:27;;;;;;;6.73;6.03;;;;;;;24.43;50.13;94947.72;6161059;28;103051;-56
2022/06/13 11:31:32;;;;;;;6.77;6.27;;;;;;;24.44;50.22;94943.94;6150734;28;103984;-57
2022/06/13 11:34:39;;;;;;;6.97;6.30;;;;;;;24.42;50.35;94940.81;6160372;28;104130;-57
2022/06/13 11:37:42;;;;;;;7.30;6.20;;;;;;;24.40;49.75;94929.66;6161303;28;104030;-57
2022/06/13 11:40:48;;;;;;;7.30;6.70;;;;;;;24.42;49.28;94934.66;6160607;28;103077;-57
2022/06/13 11:43:55;;;;;;;7.40;6.80;;;;;;;24.39;49.30;94930.75;6150798;28;103116;-57
2022/06/13 11:47:04;;;;;;;6.80;6.30;;;;;;;24.40;49.59;94921.63;6162031;28;103259;-57
2022/06/13 11:50:21;;;;;;;7.00;6.47;;;;;;;24.38;49.79;94923.84;6161174;28;105015;-57
2022/06/13 11:53:37;;;;;;;6.40;6.00;;;;;;;24.39;49.87;94924.63;6150286;28;104369;-57
2022/06/13 11:56:40;;;;;;;6.83;6.30;;;;;;;24.36;50.06;94925.25;6135738;28;103000;-56
2022/06/13 11:59:47;;;;;;;7.47;6.80;;;;;;;24.35;50.08;94923.69;6136724;28;103198;-57
2022/06/13 12:02:57;;;;;;;6.53;6.03;;;;;;;24.34;50.01;94920.22;6136303;28;103171;-56
2022/06/13 12:06:08;;;;;;;7.63;7.10;;;;;;;24.35;49.79;94912.97;6124640;28;103260;-56
2022/06/13 12:09:18;;;;;;;6.63;6.13;;;;;;;24.35;49.69;94908.41;6136306;28;103228;-56
2022/06/13 12:12:21;;;;;;;6.70;6.30;;;;;;;24.37;50.01;94910.78;6136117;28;103088;-55
2022/06/13 12:15:34;;;;;;;6.80;6.40;;;;;;;24.35;50.09;94903.06;6131519;28;104353;-56
2022/06/13 12:18:47;;;;;;;7.93;7.17;;;;;;;24.35;50.03;94899.59;6130020;28;103207;-56
2022/06/13 12:21:59;;;;;;;7.10;6.50;;;;;;;24.32;49.97;94898.38;6136068;28;102702;-56
2022/06/13 12:25:13;;;;;;;6.60;6.10;;;;;;;24.32;49.85;94894.91;6136258;28;103981;-56
2022/06/13 12:28:19;;;;;;;6.83;6.33;;;;;;;24.32;49.90;94893.03;6126334;28;103595;-56
2022/06/13 12:31:34;;;;;;;7.40;6.90;;;;;;;24.31;49.67;94888.00;6136150;28;103828;-55
2022/06/13 12:34:49;;;;;;;7.17;6.67;;;;;;;24.33;50.01;94885.78;6135957;28;103445;-56
2022/06/13 12:38:03;;;;;;;8.23;7.53;;;;;;;24.34;50.08;94885.44;6135137;28;103158;-56
2022/06/13 12:41:16;;;;;;;6.93;6.43;;;;;;;24.33;50.60;94889.25;6129179;28;103140;-57
2022/06/13 12:44:37;;;;;;;7.63;7.13;;;;;;;24.35;50.42;94889.69;6135816;28;103355;-56
2022/06/13 12:47:55;;;;;;;7.47;6.87;;;;;;;24.36;50.43;94887.81;6135299;28;103442;-56
2022/06/13 12:51:34;;;;;;;7.60;7.03;;;;;;;24.35;50.73;94876.31;6125524;28;104087;-56
2022/06/13 12:54:50;;;;;;;7.43;6.77;;;;;;;24.35;50.92;94873.66;6049668;28;103218;-56
2022/06/13 12:58:05;;;;;;;7.80;7.10;;;;;;;24.35;50.58;94870.19;6160559;28;103389;-57
2022/06/13 13:01:17;;;;;;;7.57;7.03;;;;;;;24.33;51.16;94867.06;6154288;28;103184;-57
2022/06/13 13:04:46;;;;;;;8.17;7.57;;;;;;;24.33;51.27;94861.72;6161914;28;104253;-57
2022/06/13 13:08:02;;;;;;;7.30;6.70;;;;;;;24.33;50.89;94851.00;6164695;28;104247;-57
2022/06/13 13:11:20;;;;;;;7.07;6.57;;;;;;;24.33;50.70;94851.00;6163318;28;104101;-57
2022/06/13 13:14:39;;;;;;;8.20;6.83;;;;;;;24.33;50.74;94846.44;6153504;28;104263;-57
2022/06/13 13:17:50;;;;;;;7.60;7.10;;;;;;;24.32;50.75;94844.88;6163298;28;103135;-57
2022/06/13 13:20:58;;;;;;;7.10;6.50;;;;;;;24.32;50.45;94844.88;6163950;28;103052;-57
2022/06/13 13:24:20;;;;;;;7.23;6.60;;;;;;;24.32;50.26;94850.22;6155747;28;103005;-56
2022/06/13 13:27:26;;;;;;;8.40;7.67;;;;;;;24.31;49.48;94848.66;6163850;28;103309;-57
2022/06/13 13:30:38;;;;;;;7.90;7.40;;;;;;;24.31;49.33;94848.66;6163514;28;103053;-57
2022/06/13 13:34:06;;;;;;;8.00;7.40;;;;;;;24.30;48.95;94847.09;6163899;28;104227;-57
2022/06/13 13:37:26;;;;;;;7.57;7.07;;;;;;;24.31;48.70;94855.91;6153059;28;103251;-57
2022/06/13 13:40:39;;;;;;;7.90;7.30;;;;;;;24.30;48.55;94860.47;6163368;28;103477;-57
2022/06/13 13:43:49;;;;;;;7.97;7.47;;;;;;;24.31;48.09;94847.88;6163068;28;103979;-57
2022/06/13 13:46:59;;;;;;;8.00;7.40;;;;;;;24.28;47.80;94849.31;6152201;28;103066;-56
2022/06/13 13:50:06;;;;;;;7.63;7.13;;;;;;;24.30;47.82;94846.31;6162930;28;103222;-57
2022/06/13 13:53:13;;;;;;;8.17;7.67;;;;;;;24.30;47.56;94846.31;6162883;28;103351;-57
2022/06/13 13:56:25;;;;;;;7.90;7.20;;;;;;;24.29;47.17;94842.06;6138428;28;103453;-57
2022/06/13 13:59:32;;;;;;;8.03;7.50;;;;;;;24.28;46.74;94838.63;6128835;28;103834;-57
2022/06/13 14:02:47;;;;;;;8.23;7.63;;;;;;;24.29;46.41;94834.84;6138228;28;103171;-57
2022/06/13 14:05:55;;;;;;;7.43;6.93;;;;;;;24.29;45.53;94821.47;6138708;28;103356;-57
2022/06/13 14:09:01;;;;;;;8.03;7.43;;;;;;;24.27;45.33;94821.00;6133851;28;103179;-56
2022/06/13 14:12:10;;;;;;;8.13;7.40;;;;;;;24.27;42.20;94833.59;6133857;28;104153;-57
2022/06/13 14:15:18;;;;;;;8.33;7.70;;;;;;;24.28;41.42;94819.91;6137027;28;103060;-52
2022/06/13 14:18:28;;;;;;;8.17;7.50;;;;;;;24.27;41.65;94817.56;6138883;28;103203;-52
2022/06/13 14:21:53;;;;;;;8.23;7.63;;;;;;;24.27;41.85;94815.66;6127673;28;103244;-52
2022/06/13 14:25:04;;;;;;;8.10;7.50;;;;;;;24.27;41.70;94817.56;6135445;28;103142;-52
2022/06/13 14:28:11;;;;;;;7.77;7.13;;;;;;;24.27;42.18;94813.00;6138844;28;103122;-52
2022/06/13 14:31:18;;;;;;;8.57;7.87;;;;;;;24.27;42.47;94812.22;6137667;28;103180;-52
2022/06/13 14:38:17;;;;;;;7.47;6.87;;;;;;;24.27;42.70;94804.97;6137856;28;103135;-51
2022/06/13 14:41:37;;;;;;;8.80;7.73;;;;;;;24.28;43.32;94805.75;6138101;28;103273;-52
2022/06/13 14:44:51;;;;;;;8.60;7.90;;;;;;;24.28;43.44;94811.88;6127198;28;103918;-52
2022/06/13 14:48:24;;;;;;;8.50;7.90;;;;;;;24.28;43.88;94811.09;6137379;28;104018;-52
2022/06/13 14:51:30;;;;;;;8.27;7.73;;;;;;;24.28;43.87;94808.41;6121609;28;103019;-52
2022/06/13 14:54:44;;;;;;;8.30;7.70;;;;;;;24.28;43.83;94811.88;6149864;28;103155;-58
2022/06/13 14:57:52;;;;;;;8.43;7.70;;;;;;;24.31;41.65;94813.91;6157354;28;104128;-58
2022/06/13 15:01:19;;;;;;;9.20;8.40;;;;;;;24.30;40.48;94812.34;6161040;28;103349;-57
2022/06/13 15:04:26;;;;;;;8.00;7.40;;;;;;;24.28;40.07;94803.84;6162340;28;105891;-58
2022/06/13 15:07:46;;;;;;;7.67;6.97;;;;;;;24.30;39.87;94804.31;6151070;28;104005;-59
2022/06/13 15:10:54;;;;;;;7.67;6.97;;;;;;;24.29;40.20;94797.41;6161684;28;103137;-58
2022/06/13 15:13:58;;;;;;;8.30;7.70;;;;;;;24.29;40.56;94797.41;6161285;28;103168;-58